Time;durP1;ratioP1;P1;durP2;ratioP2;P2;SDS_P1;SDS_P2;PMS_P1;PMS_P2;Temp;Humidity;BMP_temperature;BMP_pressure;BME280_temperature;BME280_humidity;BME280_pressure;Samples;Min_cycle;Max_cycle;Signal;HPM_P1;HPM_P2
2021/08/18 00:02:25;;;;;;;40.47;13.02;;;;;;;12.31;100.00;101081.94;5004945;28;20389;-76
2021/08/18 00:04:52;;;;;;;25.15;12.25;;;;;;;12.38;100.00;101084.81;5002163;28;20033;-75
2021/08/18 00:07:18;;;;;;;27.80;12.00;;;;;;;12.32;100.00;101077.47;5016388;28;20506;-75
2021/08/18 00:09:44;;;;;;;29.00;12.98;;;;;;;12.27;100.00;101070.06;5005245;28;20045;-74
2021/08/18 00:12:09;;;;;;;27.77;12.48;;;;;;;12.31;100.00;101066.16;5024299;28;20115;-77
2021/08/18 00:14:35;;;;;;;23.85;12.30;;;;;;;12.31;100.00;101068.78;4988309;28;20487;-74
2021/08/18 00:17:01;;;;;;;28.77;12.27;;;;;;;12.25;100.00;101069.38;5009037;28;20048;-75
2021/08/18 00:19:26;;;;;;;27.42;11.73;;;;;;;12.24;100.00;101062.44;5024108;28;20128;-76
2021/08/18 00:21:52;;;;;;;33.83;13.40;;;;;;;12.24;100.00;101062.44;5007074;28;20037;-74
2021/08/18 00:24:17;;;;;;;27.73;12.25;;;;;;;12.30;100.00;101064.50;5005304;28;20026;-75
2021/08/18 00:26:44;;;;;;;32.42;12.23;;;;;;;12.33;100.00;101072.06;4996315;28;20118;-75
2021/08/18 00:29:10;;;;;;;25.95;11.88;;;;;;;12.37;100.00;101068.16;5006880;28;20454;-75
2021/08/18 00:31:35;;;;;;;24.60;12.77;;;;;;;12.33;100.00;101066.00;5024823;28;20051;-75
2021/08/18 00:34:01;;;;;;;26.83;12.02;;;;;;;12.45;100.00;101070.03;4999435;28;20037;-75
2021/08/18 00:36:30;;;;;;;29.63;13.20;;;;;;;12.50;100.00;101074.88;5018211;28;20036;-75
2021/08/18 00:38:55;;;;;;;30.50;12.23;;;;;;;12.55;100.00;101070.00;5021736;28;21022;-75
2021/08/18 00:41:21;;;;;;;23.25;11.13;;;;;;;12.56;100.00;101061.09;4996754;28;20033;-74
2021/08/18 00:43:50;;;;;;;28.33;12.90;;;;;;;12.56;100.00;101069.00;4989334;28;20034;-73
2021/08/18 00:46:17;;;;;;;27.52;12.95;;;;;;;12.59;100.00;101071.34;5023090;28;20025;-74
2021/08/18 00:48:45;;;;;;;23.75;11.73;;;;;;;12.58;100.00;101070.50;5024917;28;20073;-75
2021/08/18 00:51:12;;;;;;;23.33;12.05;;;;;;;12.43;100.00;101059.69;5013531;28;20119;-75
2021/08/18 00:53:39;;;;;;;27.33;11.68;;;;;;;12.42;100.00;101070.38;5027386;28;20034;-76
2021/08/18 00:56:05;;;;;;;29.60;11.90;;;;;;;12.42;100.00;101065.09;5036551;28;20124;-75
2021/08/18 00:58:30;;;;;;;27.98;12.45;;;;;;;12.42;100.00;101067.72;5037905;28;20124;-75
2021/08/18 01:00:57;;;;;;;25.05;11.95;;;;;;;12.40;100.00;101060.00;5015237;28;20033;-75
2021/08/18 01:03:25;;;;;;;24.60;12.20;;;;;;;12.47;100.00;101062.84;5006674;28;20044;-75
2021/08/18 01:05:51;;;;;;;24.13;11.88;;;;;;;12.46;100.00;101066.44;5000199;28;20057;-76
2021/08/18 01:08:17;;;;;;;25.38;12.85;;;;;;;12.46;100.00;101054.13;5021763;28;20041;-75
2021/08/18 01:10:43;;;;;;;21.52;11.30;;;;;;;12.44;100.00;101050.81;5027335;28;20042;-75
2021/08/18 01:13:08;;;;;;;23.38;10.70;;;;;;;12.38;100.00;101048.78;5029777;28;20056;-75
2021/08/18 01:15:35;;;;;;;22.98;12.13;;;;;;;12.35;100.00;101054.34;5013679;28;20064;-77
2021/08/18 01:18:02;;;;;;;23.50;11.30;;;;;;;12.39;100.00;101057.50;4990156;28;20063;-74
2021/08/18 01:20:35;;;;;;;29.65;13.10;;;;;;;12.39;100.00;101052.25;5010217;28;20037;-76
2021/08/18 01:23:02;;;;;;;;;;;;;;;12.45;100.00;101056.88;5009367;28;20044;-75
2021/08/18 01:25:28;;;;;;;24.55;11.30;;;;;;;12.49;100.00;101062.69;5012119;28;19931;-75
2021/08/18 01:27:57;;;;;;;24.27;12.10;;;;;;;12.52;100.00;101059.75;5034206;28;20025;-75
2021/08/18 01:30:24;;;;;;;26.90;11.80;;;;;;;12.61;100.00;101059.66;5023770;28;20041;-74
2021/08/18 01:32:56;;;;;;;28.02;12.25;;;;;;;12.61;100.00;101064.13;5029182;28;20176;-74
2021/08/18 01:35:26;;;;;;;25.17;11.50;;;;;;;12.61;100.00;101054.41;5015855;28;20034;-76
2021/08/18 01:37:52;;;;;;;21.23;11.38;;;;;;;12.59;100.00;101059.00;5027608;28;20290;-74
2021/08/18 01:40:20;;;;;;;21.73;10.95;;;;;;;12.58;100.00;101057.34;5033762;28;20633;-75
2021/08/18 01:42:46;;;;;;;25.58;11.93;;;;;;;12.52;100.00;101060.56;5021656;28;20039;-75
2021/08/18 01:45:26;;;;;;;21.77;10.25;;;;;;;12.49;100.00;101066.16;5009787;28;20021;-74
2021/08/18 01:47:52;;;;;;;23.08;10.63;;;;;;;12.46;100.00;101066.44;5028687;28;20034;-76
2021/08/18 01:50:19;;;;;;;25.23;11.57;;;;;;;12.45;100.00;101059.53;4994037;28;20392;-74
2021/08/18 01:52:48;;;;;;;26.17;11.35;;;;;;;12.46;100.00;101066.44;5024779;28;20045;-75
2021/08/18 01:55:14;;;;;;;26.05;11.55;;;;;;;12.50;100.00;101053.81;5028432;28;20037;-74
2021/08/18 01:57:43;;;;;;;22.00;11.50;;;;;;;12.49;100.00;101057.41;5027405;28;20033;-76
2021/08/18 02:00:10;;;;;;;23.50;11.13;;;;;;;12.48;100.00;101058.41;4992711;28;20029;-77
2021/08/18 02:02:37;;;;;;;25.65;11.43;;;;;;;12.44;100.00;101056.06;5025030;28;20052;-75
2021/08/18 02:05:03;;;;;;;26.73;11.38;;;;;;;12.38;100.00;101047.97;5026830;28;20482;-75
2021/08/18 02:07:29;;;;;;;21.38;10.93;;;;;;;12.26;100.00;101036.81;5013613;28;20190;-75
2021/08/18 02:09:54;;;;;;;24.58;11.18;;;;;;;12.21;100.00;101041.72;5022745;28;20697;-75
2021/08/18 02:12:20;;;;;;;23.48;10.98;;;;;;;12.17;100.00;101043.00;5023018;28;20510;-74
2021/08/18 02:14:46;;;;;;;25.23;11.77;;;;;;;12.11;100.00;101044.44;5013941;28;20029;-75
2021/08/18 02:17:13;;;;;;;21.15;11.43;;;;;;;12.04;100.00;101038.13;5028958;28;20495;-75
2021/08/18 02:19:38;;;;;;;24.38;12.02;;;;;;;12.00;100.00;101027.06;5019225;28;20094;-75
2021/08/18 02:22:04;;;;;;;24.50;11.65;;;;;;;11.92;100.00;101034.03;4992396;28;20033;-75
2021/08/18 02:24:30;;;;;;;21.67;10.90;;;;;;;11.81;100.00;101035.88;5041598;28;20092;-76
2021/08/18 02:26:56;;;;;;;24.73;11.63;;;;;;;11.80;100.00;101031.56;5017331;28;20034;-75
2021/08/18 02:29:21;;;;;;;21.60;11.88;;;;;;;11.78;100.00;101030.09;4994023;28;20534;-75
2021/08/18 02:31:47;;;;;;;22.38;11.88;;;;;;;11.73;100.00;101027.88;5011189;28;20045;-75
2021/08/18 02:34:16;;;;;;;22.33;11.80;;;;;;;11.71;100.00;101023.75;5028382;28;20745;-77
2021/08/18 02:36:41;;;;;;;18.88;11.95;;;;;;;11.69;100.00;101018.63;5011281;28;20026;-75
2021/08/18 02:39:08;;;;;;;19.05;10.95;;;;;;;11.69;100.00;101021.28;5017607;28;20037;-75
2021/08/18 02:41:34;;;;;;;20.75;11.98;;;;;;;11.62;100.00;101009.69;5030719;28;20112;-74
2021/08/18 02:44:00;;;;;;;21.67;11.88;;;;;;;11.57;100.00;101014.56;5010998;28;20410;-75
2021/08/18 02:46:26;;;;;;;22.33;11.27;;;;;;;11.48;100.00;101011.00;5011311;28;20044;-75
2021/08/18 02:48:52;;;;;;;26.83;12.50;;;;;;;11.42;100.00;100999.28;5010014;28;20037;-73
2021/08/18 02:51:18;;;;;;;21.52;11.40;;;;;;;11.40;100.00;101003.03;5026901;28;20048;-76
2021/08/18 02:53:43;;;;;;;25.05;12.02;;;;;;;11.41;100.00;101002.88;5033907;28;20502;-75
2021/08/18 02:56:09;;;;;;;26.02;11.93;;;;;;;11.30;100.00;100992.56;5027729;28;20025;-75
2021/08/18 02:58:38;;;;;;;18.55;12.02;;;;;;;11.35;100.00;101000.00;5024270;28;20098;-75
2021/08/18 03:01:03;;;;;;;25.98;12.43;;;;;;;11.28;100.00;100997.13;5033306;28;20767;-75
2021/08/18 03:03:29;;;;;;;24.98;13.38;;;;;;;11.22;100.00;100992.47;5026729;28;20029;-75
2021/08/18 03:05:54;;;;;;;24.30;12.75;;;;;;;11.18;100.00;100991.91;4998340;28;20107;-75
2021/08/18 03:08:20;;;;;;;20.42;13.05;;;;;;;11.19;100.00;100990.13;5030556;28;20029;-75
2021/08/18 03:10:45;;;;;;;24.98;13.57;;;;;;;11.15;100.00;100984.34;5033406;28;20093;-75
2021/08/18 03:13:11;;;;;;;23.17;12.77;;;;;;;11.10;100.00;100982.13;5029688;28;20132;-75
2021/08/18 03:15:36;;;;;;;28.35;13.68;;;;;;;11.14;100.00;100984.50;5028759;28;20465;-75
2021/08/18 03:18:02;;;;;;;30.52;13.57;;;;;;;11.09;100.00;100983.13;5028575;28;20487;-76
2021/08/18 03:20:28;;;;;;;27.67;12.68;;;;;;;11.04;100.00;100981.91;5026629;28;20036;-77
2021/08/18 03:22:53;;;;;;;31.50;13.32;;;;;;;11.04;100.00;100979.28;5010611;28;20041;-74
2021/08/18 03:25:20;;;;;;;22.73;12.05;;;;;;;10.99;100.00;100984.94;5022285;28;20057;-76
2021/08/18 03:27:46;;;;;;;26.05;12.60;;;;;;;10.92;100.00;100968.09;5027790;28;20071;-76
2021/08/18 03:30:13;;;;;;;20.40;11.75;;;;;;;10.96;100.00;100979.97;5026923;28;20029;-73
2021/08/18 03:32:39;;;;;;;25.67;13.02;;;;;;;10.90;100.00;100977.94;5030231;28;20479;-75
2021/08/18 03:35:06;;;;;;;25.20;12.93;;;;;;;10.88;100.00;100987.75;5011293;28;20041;-76
2021/08/18 03:37:31;;;;;;;21.05;12.52;;;;;;;10.86;100.00;100987.88;4998761;28;20041;-74
2021/08/18 03:39:57;;;;;;;26.80;13.90;;;;;;;10.89;100.00;100990.22;5011771;28;20039;-77
2021/08/18 03:42:23;;;;;;;23.27;13.00;;;;;;;10.92;100.00;100978.59;5017581;28;20033;-75
2021/08/18 03:44:48;;;;;;;26.40;14.07;;;;;;;10.86;100.00;100980.00;5009039;28;20025;-74
2021/08/18 03:47:14;;;;;;;27.50;13.23;;;;;;;10.85;100.00;100982.75;4993162;28;20033;-75
2021/08/18 03:49:39;;;;;;;26.25;13.98;;;;;;;10.87;100.00;100986.94;5023726;28;20048;-74
2021/08/18 03:52:06;;;;;;;22.63;13.05;;;;;;;10.93;100.00;100979.47;5009710;28;20052;-75
2021/08/18 03:54:32;;;;;;;24.90;13.25;;;;;;;10.91;100.00;100983.03;5025725;28;20029;-75
2021/08/18 03:56:58;;;;;;;23.45;12.95;;;;;;;10.90;100.00;100980.56;5009448;28;20065;-76
2021/08/18 03:59:23;;;;;;;24.25;13.57;;;;;;;10.91;100.00;100980.41;5009124;28;20067;-75
2021/08/18 04:01:49;;;;;;;26.92;13.40;;;;;;;10.97;100.00;100989.50;5009056;28;20413;-75
2021/08/18 04:04:15;;;;;;;30.77;15.35;;;;;;;10.95;100.00;100980.97;5037939;28;20079;-74
2021/08/18 04:06:41;;;;;;;25.63;13.40;;;;;;;10.96;100.00;100987.84;5037497;28;20037;-74
2021/08/18 04:09:06;;;;;;;25.52;12.82;;;;;;;10.94;100.00;100978.47;5014313;28;20522;-76
2021/08/18 04:11:32;;;;;;;27.83;13.95;;;;;;;10.97;100.00;100983.44;5017594;28;20407;-77
2021/08/18 04:13:58;;;;;;;24.75;13.55;;;;;;;11.10;100.00;100987.41;5012507;28;20224;-73
2021/08/18 04:16:24;;;;;;;25.77;14.07;;;;;;;11.03;100.00;100973.19;5027563;28;20517;-75
2021/08/18 04:18:50;;;;;;;29.73;13.30;;;;;;;11.04;100.00;100980.09;5031157;28;20041;-75
2021/08/18 04:21:16;;;;;;;28.15;14.20;;;;;;;11.09;100.00;100977.88;4994478;28;20104;-74
2021/08/18 04:23:42;;;;;;;30.17;13.57;;;;;;;11.16;100.00;100993.03;5030967;28;20120;-75
2021/08/18 04:26:08;;;;;;;33.83;14.38;;;;;;;11.15;100.00;100978.25;5000857;28;20058;-76
2021/08/18 04:28:35;;;;;;;31.85;14.90;;;;;;;11.18;100.00;100984.03;5025665;28;20490;-75
2021/08/18 04:31:00;;;;;;;31.17;15.13;;;;;;;11.17;100.00;100982.41;5007907;28;20040;-74
2021/08/18 04:33:26;;;;;;;31.08;14.35;;;;;;;11.21;100.00;100989.03;5024953;28;20486;-75
2021/08/18 04:35:51;;;;;;;26.63;14.48;;;;;;;11.37;100.00;100995.44;5026511;28;20025;-74
2021/08/18 04:38:17;;;;;;;44.22;15.60;;;;;;;11.46;100.00;100989.31;5014037;28;20558;-75
2021/08/18 04:40:42;;;;;;;33.47;15.32;;;;;;;11.57;100.00;100990.94;5006611;28;20793;-75
2021/08/18 04:43:12;;;;;;;38.58;15.27;;;;;;;11.58;100.00;100987.31;5026277;28;20041;-75
2021/08/18 04:45:39;;;;;;;34.67;17.35;;;;;;;11.78;100.00;100986.22;5041826;28;20401;-74
2021/08/18 04:48:04;;;;;;;34.20;15.13;;;;;;;11.79;100.00;100987.88;5021445;28;20445;-74
2021/08/18 04:50:30;;;;;;;32.72;15.60;;;;;;;11.84;100.00;100990.88;5025203;28;20041;-75
2021/08/18 04:52:55;;;;;;;33.25;16.65;;;;;;;11.91;100.00;100979.81;5032465;28;20041;-76
2021/08/18 04:55:22;;;;;;;33.13;15.45;;;;;;;11.96;100.00;100988.06;5010438;28;20029;-76
2021/08/18 04:57:47;;;;;;;31.48;15.10;;;;;;;11.91;100.00;100979.81;5028220;28;20438;-74
2021/08/18 05:00:14;;;;;;;33.88;15.75;;;;;;;11.96;100.00;100982.81;5025482;28;20041;-74
2021/08/18 05:02:40;;;;;;;33.35;14.73;;;;;;;11.94;100.00;100982.97;5010541;28;20434;-74
2021/08/18 05:05:06;;;;;;;28.25;14.02;;;;;;;11.92;100.00;100986.72;5002956;28;20044;-74
2021/08/18 05:07:33;;;;;;;31.25;14.52;;;;;;;11.92;100.00;100984.91;5028928;28;20065;-75
2021/08/18 05:09:59;;;;;;;26.88;15.70;;;;;;;11.94;100.00;100988.25;5032015;28;20029;-74
2021/08/18 05:12:25;;;;;;;28.23;14.65;;;;;;;12.04;100.00;100988.97;4996246;28;20490;-74
2021/08/18 05:14:50;;;;;;;36.10;14.45;;;;;;;12.05;100.00;100982.75;5016241;28;20099;-75
2021/08/18 05:17:16;;;;;;;31.42;14.05;;;;;;;12.20;100.00;100974.31;5008502;28;20037;-77
2021/08/18 05:19:42;;;;;;;30.35;15.43;;;;;;;12.26;100.00;100978.97;5018945;28;20040;-75
2021/08/18 05:22:07;;;;;;;27.95;14.55;;;;;;;12.33;100.00;100973.94;5011255;28;20474;-75
2021/08/18 05:24:33;;;;;;;30.98;14.20;;;;;;;12.34;100.00;100981.69;5023126;28;20022;-74
2021/08/18 05:26:59;;;;;;;28.88;14.68;;;;;;;12.41;100.00;100982.72;5024090;28;20040;-76
2021/08/18 05:29:25;;;;;;;25.35;13.95;;;;;;;12.53;100.00;100974.59;5010872;28;20117;-76
2021/08/18 05:31:50;;;;;;;27.13;14.35;;;;;;;12.52;100.00;100986.91;5023617;28;20045;-73
2021/08/18 05:34:16;;;;;;;25.42;13.60;;;;;;;12.55;100.00;100972.63;4992821;28;20030;-74
2021/08/18 05:36:41;;;;;;;22.98;12.50;;;;;;;12.66;100.00;100985.53;5024939;28;20044;-73
2021/08/18 05:39:07;;;;;;;22.23;12.63;;;;;;;12.70;100.00;100968.47;5030861;28;20041;-75
2021/08/18 05:41:33;;;;;;;28.17;13.02;;;;;;;12.76;100.00;100975.72;5034205;28;20025;-74
2021/08/18 05:43:59;;;;;;;25.58;12.75;;;;;;;12.90;100.00;100970.88;4995881;28;20064;-74
2021/08/18 05:46:24;;;;;;;23.23;12.80;;;;;;;13.00;100.00;100974.22;5012159;28;20034;-74
2021/08/18 05:48:50;;;;;;;27.52;13.38;;;;;;;13.05;100.00;100961.41;5028207;28;20059;-73
2021/08/18 05:51:15;;;;;;;21.52;12.70;;;;;;;13.17;100.00;100967.22;5028689;28;20095;-75
2021/08/18 05:53:41;;;;;;;23.90;12.40;;;;;;;13.18;100.00;100959.16;5028018;28;20098;-74
2021/08/18 05:56:06;;;;;;;22.75;11.80;;;;;;;13.31;100.00;100979.00;5028186;28;20070;-75
2021/08/18 05:58:32;;;;;;;21.92;11.68;;;;;;;13.35;100.00;100965.34;5028486;28;20041;-75
2021/08/18 06:00:57;;;;;;;17.67;10.57;;;;;;;13.39;100.00;100965.84;5008367;28;20065;-77
2021/08/18 06:03:23;;;;;;;22.52;11.02;;;;;;;13.47;100.00;100965.91;5028084;28;20406;-75
2021/08/18 06:05:49;;;;;;;20.13;10.43;;;;;;;13.53;100.00;100957.34;5027151;28;20820;-75
2021/08/18 06:08:14;;;;;;;20.42;11.35;;;;;;;13.64;100.00;100950.94;5008390;28;20491;-75
2021/08/18 06:10:40;;;;;;;15.80;10.32;;;;;;;13.68;100.00;100954.09;5010919;28;20171;-74
2021/08/18 06:13:05;;;;;;;22.10;10.52;;;;;;;13.75;100.00;100952.44;5028974;28;20549;-75
2021/08/18 06:15:34;;;;;;;19.10;10.02;;;;;;;13.88;100.00;100958.09;5025839;28;20040;-74
2021/08/18 06:18:00;;;;;;;18.27;10.60;;;;;;;13.97;100.00;100958.91;5028124;28;20037;-75
2021/08/18 06:20:25;;;;;;;15.95;10.15;;;;;;;13.99;100.00;100962.19;5010260;28;20044;-75
2021/08/18 06:22:51;;;;;;;13.25;9.32;;;;;;;14.08;100.00;100963.03;5027246;28;20033;-76
2021/08/18 06:25:17;;;;;;;16.13;9.85;;;;;;;14.06;100.00;100972.94;5005265;28;20035;-75
2021/08/18 06:27:43;;;;;;;13.73;8.57;;;;;;;14.02;100.00;100967.16;5010787;28;20053;-75
2021/08/18 06:30:10;;;;;;;15.02;8.65;;;;;;;14.03;100.00;100955.59;5010026;28;20064;-76
2021/08/18 06:32:36;;;;;;;13.02;8.10;;;;;;;13.92;100.00;100969.09;5011064;28;20040;-75
2021/08/18 06:35:02;;;;;;;15.93;7.85;;;;;;;13.89;100.00;100962.34;4992700;28;20466;-75
2021/08/18 06:37:28;;;;;;;13.43;7.82;;;;;;;13.90;100.00;100971.94;5009005;28;20041;-75
2021/08/18 06:39:53;;;;;;;12.35;7.68;;;;;;;13.85;100.00;100968.94;5028391;28;20087;-74
2021/08/18 06:42:19;;;;;;;12.55;7.63;;;;;;;13.85;100.00;100976.84;4994600;28;20490;-75
2021/08/18 06:44:48;;;;;;;11.32;6.47;;;;;;;13.92;100.00;100959.41;5009627;28;20087;-74
2021/08/18 06:47:14;;;;;;;12.20;6.82;;;;;;;13.94;100.00;100964.53;5027149;28;20030;-74
2021/08/18 06:49:40;;;;;;;10.05;6.88;;;;;;;13.94;100.00;100970.63;5026900;28;20087;-75
2021/08/18 06:52:18;;;;;;;10.93;6.55;;;;;;;13.87;100.00;100974.88;4997691;28;20060;-75
2021/08/18 06:54:44;;;;;;;10.70;6.15;;;;;;;13.83;100.00;100981.47;5026933;28;20123;-75
2021/08/18 06:57:09;;;;;;;8.63;5.95;;;;;;;13.86;100.00;100985.59;5011292;28;20762;-75
2021/08/18 06:59:35;;;;;;;9.30;5.53;;;;;;;13.90;100.00;100979.00;5027807;28;20076;-75
2021/08/18 07:02:01;;;;;;;10.07;5.35;;;;;;;13.91;100.00;100985.94;5021313;28;20064;-75
2021/08/18 07:04:27;;;;;;;9.07;4.80;;;;;;;14.00;100.00;100967.31;5010478;28;20752;-76
2021/08/18 07:06:53;;;;;;;10.30;5.28;;;;;;;14.08;100.00;100976.22;5027122;28;20034;-75
2021/08/18 07:09:18;;;;;;;10.02;4.60;;;;;;;14.10;100.00;100964.50;5026780;28;20037;-75
2021/08/18 07:11:44;;;;;;;7.38;4.63;;;;;;;14.11;100.00;100974.09;5009178;28;20037;-78
2021/08/18 07:14:09;;;;;;;9.73;4.88;;;;;;;14.18;100.00;100975.09;5027026;28;20044;-76
2021/08/18 07:16:35;;;;;;;9.25;5.00;;;;;;;14.23;100.00;100971.13;5009999;28;20109;-76
2021/08/18 07:19:02;;;;;;;12.38;5.72;;;;;;;14.32;100.00;100975.41;5010731;28;20037;-76
2021/08/18 07:21:28;;;;;;;7.78;4.35;;;;;;;14.42;100.00;100968.13;4990929;28;20033;-75
2021/08/18 07:23:55;;;;;;;7.18;4.65;;;;;;;14.39;100.00;100971.94;5009866;28;20025;-74
2021/08/18 07:26:24;;;;;;;5.20;4.22;;;;;;;14.48;100.00;100970.09;5027315;28;20037;-76
2021/08/18 07:28:53;;;;;;;8.35;4.63;;;;;;;14.46;100.00;100966.81;5011441;28;20041;-74
2021/08/18 07:31:19;;;;;;;6.47;4.10;;;;;;;14.42;100.00;100970.78;5008100;28;20060;-76
2021/08/18 07:33:45;;;;;;;11.07;4.65;;;;;;;14.44;100.00;100968.78;5026269;28;20483;-74
2021/08/18 07:36:10;;;;;;;13.57;4.45;;;;;;;14.53;100.00;100967.78;5027801;28;20108;-76
2021/08/18 07:38:36;;;;;;;8.10;4.00;;;;;;;14.74;100.00;100969.13;5025453;28;20072;-75
2021/08/18 07:41:01;;;;;;;9.60;4.40;;;;;;;14.78;100.00;100957.22;5027255;28;20036;-74
2021/08/18 07:43:27;;;;;;;6.00;4.05;;;;;;;14.82;100.00;100961.16;5027087;28;20482;-75
2021/08/18 07:45:53;;;;;;;9.63;3.85;;;;;;;14.75;100.00;100961.03;5010663;28;20036;-75
2021/08/18 07:48:19;;;;;;;11.32;4.00;;;;;;;14.71;100.00;100965.00;5010757;28;20503;-74
2021/08/18 07:50:44;;;;;;;5.60;3.40;;;;;;;14.62;100.00;100970.44;5027706;28;20116;-76
2021/08/18 07:53:10;;;;;;;5.63;3.08;;;;;;;14.48;100.00;100974.56;5026315;28;20443;-76
2021/08/18 07:55:35;;;;;;;7.43;3.47;;;;;;;14.38;100.00;100970.28;5009642;28;20441;-75
2021/08/18 07:58:01;;;;;;;6.65;3.60;;;;;;;14.37;100.00;100981.00;4984216;28;20037;-75
2021/08/18 08:00:27;;;;;;;9.43;4.05;;;;;;;14.39;100.00;100981.66;5022543;28;20040;-76
2021/08/18 08:02:52;;;;;;;9.75;3.72;;;;;;;14.35;100.00;100983.81;5008135;28;20406;-73
2021/08/18 08:05:18;;;;;;;5.35;3.30;;;;;;;14.45;100.00;100986.28;5024882;28;20132;-75
2021/08/18 08:07:44;;;;;;;9.00;3.53;;;;;;;14.70;100.00;100988.94;5025204;28;20127;-76
2021/08/18 08:10:12;;;;;;;6.80;3.83;;;;;;;14.94;100.00;100985.44;5009766;28;20191;-76
2021/08/18 08:12:38;;;;;;;6.85;2.95;;;;;;;15.27;100.00;100980.84;4991506;28;20131;-76
2021/08/18 08:15:06;;;;;;;10.95;3.40;;;;;;;15.76;100.00;100977.16;5009389;28;20812;-75
2021/08/18 08:17:32;;;;;;;9.15;3.13;;;;;;;16.06;100.00;100985.22;4993815;28;20037;-75
2021/08/18 08:19:58;;;;;;;4.70;2.70;;;;;;;16.02;100.00;100979.47;5010809;28;20501;-77
2021/08/18 08:22:23;;;;;;;6.25;3.17;;;;;;;15.99;100.00;100990.38;5006278;28;20038;-74
2021/08/18 08:24:49;;;;;;;9.65;2.95;;;;;;;15.79;100.00;100987.41;4992100;28;20186;-77
2021/08/18 08:27:15;;;;;;;7.10;2.97;;;;;;;15.66;100.00;100987.94;5009715;28;20044;-75
2021/08/18 08:29:40;;;;;;;5.28;2.85;;;;;;;15.71;100.00;100988.25;5009837;28;20040;-75
2021/08/18 08:32:06;;;;;;;8.10;2.65;;;;;;;15.72;100.00;100991.69;5009745;28;20044;-75
2021/08/18 08:34:32;;;;;;;7.00;3.03;;;;;;;15.85;100.00;100988.50;5026099;28;20120;-75
2021/08/18 08:36:58;;;;;;;4.60;2.53;;;;;;;15.94;100.00;100990.13;5008239;28;20038;-74
2021/08/18 08:39:24;;;;;;;6.30;2.40;;;;;;;15.93;100.00;100991.91;5009315;28;20083;-75
2021/08/18 08:41:49;;;;;;;7.47;2.70;;;;;;;15.84;100.00;100986.84;4989870;28;20034;-74
2021/08/18 08:44:17;;;;;;;4.57;2.50;;;;;;;15.74;100.00;101002.94;5026875;28;20126;-75
2021/08/18 08:46:44;;;;;;;8.88;2.70;;;;;;;15.66;100.00;101005.63;4993563;28;20041;-75
2021/08/18 08:49:11;;;;;;;5.85;2.60;;;;;;;15.55;100.00;100993.59;5026540;28;20475;-75
2021/08/18 08:51:37;;;;;;;7.15;2.70;;;;;;;15.53;100.00;101007.00;5026357;28;20041;-75
2021/08/18 08:54:02;;;;;;;5.97;2.35;;;;;;;15.44;100.00;101008.03;5025781;28;20044;-75
2021/08/18 08:56:28;;;;;;;6.60;2.83;;;;;;;15.40;100.00;101005.91;5006005;28;20029;-76
2021/08/18 08:58:53;;;;;;;8.77;3.20;;;;;;;15.35;100.00;101009.03;5009740;28;20045;-76
2021/08/18 09:01:19;;;;;;;7.97;3.03;;;;;;;15.45;100.00;100998.28;4993329;28;20038;-76
2021/08/18 09:03:46;;;;;;;4.70;2.90;;;;;;;15.60;100.00;101004.50;5026155;28;20120;-74
2021/08/18 09:06:18;;;;;;;5.45;2.92;;;;;;;15.68;100.00;101003.63;5027600;28;20103;-75
2021/08/18 09:08:49;;;;;;;6.68;3.70;;;;;;;15.76;100.00;101007.09;5029542;28;20661;-77
2021/08/18 09:11:16;;;;;;;6.50;3.45;;;;;;;16.02;100.00;101005.09;4991369;28;20045;-75
2021/08/18 09:13:51;;;;;;;6.97;3.10;;;;;;;16.17;100.00;101005.16;4992953;28;20488;-76
2021/08/18 09:16:33;;;;;;;10.25;3.45;;;;;;;16.27;99.13;101011.84;5030302;28;20459;-76
2021/08/18 09:18:59;;;;;;;9.02;2.97;;;;;;;16.40;99.25;101003.31;4997254;28;20049;-75
2021/08/18 09:21:24;;;;;;;6.15;3.30;;;;;;;16.44;100.00;101001.13;5028003;28;20037;-78
2021/08/18 09:23:50;;;;;;;7.22;3.80;;;;;;;16.40;100.00;101003.31;4996376;28;20526;-75
2021/08/18 09:26:20;;;;;;;7.57;3.70;;;;;;;16.59;100.00;101004.63;5013841;28;20494;-76
2021/08/18 09:28:46;;;;;;;8.45;3.10;;;;;;;16.63;98.24;101011.25;5030259;28;20041;-75
2021/08/18 09:31:24;;;;;;;8.13;3.40;;;;;;;16.57;99.50;100998.69;5013190;28;20033;-76
2021/08/18 09:33:57;;;;;;;7.78;3.55;;;;;;;16.51;99.56;101008.19;4996646;28;20037;-76
2021/08/18 09:36:23;;;;;;;;;;;;;;;16.29;99.44;101006.38;5030101;28;20029;-75
2021/08/18 09:38:49;;;;;;;7.10;3.20;;;;;;;16.23;100.00;101001.81;5028853;28;19925;-77
2021/08/18 09:41:18;;;;;;;7.35;3.60;;;;;;;16.07;100.00;101008.88;5013097;28;20056;-75
2021/08/18 09:43:44;;;;;;;7.20;3.53;;;;;;;16.09;100.00;100993.63;5015631;28;20737;-75
2021/08/18 09:46:10;;;;;;;7.78;3.65;;;;;;;16.14;100.00;101001.03;5012905;28;20021;-76
2021/08/18 09:48:38;;;;;;;6.85;3.50;;;;;;;16.28;100.00;100999.47;5012671;28;20410;-75
2021/08/18 09:51:11;;;;;;;6.60;3.35;;;;;;;16.39;99.41;101001.69;5025952;28;20104;-76
2021/08/18 09:53:42;;;;;;;8.70;3.95;;;;;;;16.60;99.85;101003.66;5026532;28;20049;-74
2021/08/18 09:56:10;;;;;;;9.80;3.90;;;;;;;16.78;98.09;101005.94;5012245;28;20084;-77
2021/08/18 09:58:48;;;;;;;13.43;4.47;;;;;;;17.01;97.51;101007.72;5029518;28;20075;-77
2021/08/18 10:01:15;;;;;;;10.90;3.80;;;;;;;17.17;96.73;101004.09;5012843;28;20029;-76
2021/08/18 10:03:43;;;;;;;8.30;3.53;;;;;;;17.32;89.55;100997.75;5026891;28;20034;-74
2021/08/18 10:06:10;;;;;;;8.18;3.67;;;;;;;17.57;91.26;100999.28;5014772;28;20041;-77
2021/08/18 10:08:37;;;;;;;6.60;2.83;;;;;;;17.64;90.14;101006.31;5031975;28;20410;-76
2021/08/18 10:11:05;;;;;;;8.88;3.55;;;;;;;17.80;89.66;101005.28;5014177;28;20026;-75
2021/08/18 10:13:31;;;;;;;7.40;3.38;;;;;;;17.69;91.30;101006.56;4995783;28;20041;-77
2021/08/18 10:15:57;;;;;;;5.95;3.35;;;;;;;17.71;94.50;101003.75;4996044;28;20060;-76
2021/08/18 10:18:28;;;;;;;7.20;3.17;;;;;;;17.74;92.52;101003.34;4995357;28;20079;-77
2021/08/18 10:21:10;;;;;;;13.75;3.67;;;;;;;17.82;90.17;101002.41;5011755;28;20163;-77
2021/08/18 10:23:43;;;;;;;6.05;3.45;;;;;;;17.92;90.91;100996.84;5028176;28;20064;-76
2021/08/18 10:26:32;;;;;;;9.30;3.60;;;;;;;17.73;89.96;100999.06;5001297;28;20029;-76
2021/08/18 10:28:59;;;;;;;7.57;3.67;;;;;;;17.65;91.26;100996.50;4987918;28;20037;-77
2021/08/18 10:34:10;;;;;;;11.35;3.88;;;;;;;17.74;92.04;100994.56;5008395;28;20047;-77
2021/08/18 10:36:42;;;;;;;9.02;3.95;;;;;;;17.92;91.97;100989.69;5025509;28;20030;-76
2021/08/18 10:39:25;;;;;;;10.53;3.67;;;;;;;17.97;90.35;100989.13;5029551;28;20044;-78
2021/08/18 10:42:10;;;;;;;12.85;3.60;;;;;;;17.88;89.69;100991.91;5028983;28;20030;-76
2021/08/18 10:44:48;;;;;;;7.25;3.80;;;;;;;17.69;91.20;101000.44;5012009;28;20048;-75
2021/08/18 10:47:25;;;;;;;9.40;3.70;;;;;;;17.59;91.03;101003.38;5012122;28;20116;-75
2021/08/18 10:49:51;;;;;;;9.13;4.03;;;;;;;17.52;92.94;101005.97;5008203;28;20060;-75
2021/08/18 10:52:28;;;;;;;7.75;4.57;;;;;;;17.30;91.52;101001.59;5025825;28;20402;-76
2021/08/18 10:55:13;;;;;;;7.60;3.97;;;;;;;17.23;92.70;100995.41;5029982;28;20037;-76
2021/08/18 10:57:48;;;;;;;10.35;4.05;;;;;;;17.26;94.09;101009.09;5012182;28;20507;-77
2021/08/18 11:00:22;;;;;;;13.15;3.83;;;;;;;17.29;93.76;101000.78;5028130;28;20592;-75
2021/08/18 11:03:01;;;;;;;8.35;3.75;;;;;;;17.50;92.54;100997.38;5010251;28;20068;-76
2021/08/18 11:05:29;;;;;;;7.93;3.63;;;;;;;17.63;92.23;101012.63;5003023;28;20120;-77
2021/08/18 11:08:00;;;;;;;10.05;3.90;;;;;;;17.81;91.33;101017.50;5027799;28;20034;-79
2021/08/18 11:10:27;;;;;;;7.40;3.70;;;;;;;18.09;93.29;101000.88;5010158;28;20059;-76
2021/08/18 11:12:55;;;;;;;6.93;3.45;;;;;;;18.43;89.03;101000.16;4994454;28;20029;-76